Aérodrome :
LOGIN :

S'inscrire | Disclaimer

   EN    FR    IT 

 










Légende :    VFR   VFR Marginal   IFR   IFR Intensif   IFR Très Intensif
Visi : 
Plafond : 
>= 8 km
>= 3000ft
5 à 8 km
1000 à 3000 ft
1500m à 5 km
500 à 1000 ft
800 à 1500m
200 à 500 ft
< 800m
< 200 ft
Symboles :   Orages  Brouillard  Fortes neiges  Fortes précipitations  Vent > 20 kt
SIGMETs :   Divers  Orages  Givrage  Turbulence  Onde Orograph.  Cendres Volcan.






- Altitude de l'aérodrome : 14 ft
- Code IATA : LXS


LGLM - Ifaistos

DERNIER METAR :
  • 150750Z 17003KT 9999 TS FEW010 FEW018CB SCT025 18/17 Q1017

METARs EXPIRÉS :
  • 150720Z 00000KT 9999 TS FEW010 FEW018CB SCT025 15/14 Q1016
  • 150650Z 00000KT 9999 TS FEW010 FEW018CB SCT025 15/14 Q1016
  • 150620Z 00000KT 9999 FEW010 FEW018TCU 15/14 Q1015
  • 150550Z 00000KT 9999 FEW010 FEW018TCU 15/14 Q1015
  • 150520Z 00000KT 9999 FEW008 FEW018TCU 15/14 Q1014

TAF TAF LGLM
Valide du 15 à 06h jusqu'au 15 à 15h UTC


150500Z 1506/1515 18010KT 9999 FEW010 SCT020
PROB30
TEMPO 1506/1507 5000 SHRA FEW018CB BKN020



MET'MAP, la Météo Aéronautique d'un coup d'oeil ! - Copyright ORBIFLY Décembre 2007 - Disclaimer

ORBIFLY MET'MAP TEAM :

Programmation & Développement : Alexandra Zaïnal
Conception & Développement : Baudouin d'Aumeries
Co-Programmation & Développement : Marc-Olivier Méhu
Soutien technique & logistique : Manuel Goepfert

Contact : metmap@orbifly.com




SOURCES & CREDITS :

   NOAA